Time;durP1;ratioP1;P1;durP2;ratioP2;P2;SDS_P1;SDS_P2;PMS_P1;PMS_P2;Temp;Humidity;BMP_temperature;BMP_pressure;BME280_temperature;BME280_humidity;BME280_pressure;Samples;Min_cycle;Max_cycle;Signal;HPM_P1;HPM_P2
2023/06/29 00:01:55;;;;;;;0.00;0.00;;;;;;;29.07;51.14;101661.09;5050844;28;20628;-70
2023/06/29 00:04:21;;;;;;;0.00;0.00;;;;;;;29.10;50.96;101666.00;5045472;28;20045;-70
2023/06/29 00:06:49;;;;;;;0.00;0.00;;;;;;;29.23;50.81;101665.00;5055596;28;20045;-69
2023/06/29 00:09:16;;;;;;;0.00;0.00;;;;;;;28.85;51.15;101666.84;5059042;28;20029;-70
2023/06/29 00:11:42;;;;;;;0.00;0.00;;;;;;;28.94;51.46;101664.06;5066542;28;20028;-71
2023/06/29 00:14:07;;;;;;;0.00;0.00;;;;;;;28.95;51.86;101666.50;5070397;28;20515;-71
2023/06/29 00:16:33;;;;;;;0.00;0.00;;;;;;;29.28;50.51;101659.28;5070390;28;20052;-71
2023/06/29 00:19:01;;;;;;;0.00;0.00;;;;;;;29.30;50.13;101662.53;5070795;28;20443;-70
2023/06/29 00:21:28;;;;;;;0.00;0.00;;;;;;;29.06;51.34;101659.47;5068826;28;20032;-69
2023/06/29 00:23:54;;;;;;;0.00;0.00;;;;;;;29.18;50.84;101662.41;5073214;28;20067;-70
2023/06/29 00:26:20;;;;;;;0.00;0.00;;;;;;;29.33;50.25;101663.81;5086563;28;20024;-69
2023/06/29 00:28:45;;;;;;;0.00;0.00;;;;;;;29.27;51.02;101663.19;5052165;28;20036;-68
2023/06/29 00:31:10;;;;;;;0.00;0.00;;;;;;;29.29;50.35;101668.38;5076057;28;20047;-69
2023/06/29 00:33:36;;;;;;;0.00;0.00;;;;;;;29.39;50.26;101659.72;5085367;28;20039;-71
2023/06/29 00:36:01;;;;;;;0.00;0.00;;;;;;;29.29;50.49;101657.31;5072036;28;20024;-70
2023/06/29 00:38:26;;;;;;;0.00;0.00;;;;;;;29.04;51.34;101655.41;5070682;28;20028;-71
2023/06/29 00:40:52;;;;;;;0.00;0.00;;;;;;;29.21;50.92;101652.63;5079219;28;20047;-70
2023/06/29 00:43:18;;;;;;;0.00;0.00;;;;;;;29.22;50.84;101649.53;5078118;28;20111;-72
2023/06/29 00:45:43;;;;;;;0.00;0.00;;;;;;;29.31;50.32;101650.31;5087020;28;20480;-69
2023/06/29 00:48:09;;;;;;;0.00;0.00;;;;;;;29.28;50.73;101647.41;5073908;28;20046;-68
2023/06/29 00:50:35;;;;;;;0.00;0.00;;;;;;;29.39;50.52;101651.41;5084510;28;20037;-70
2023/06/29 00:53:01;;;;;;;0.00;0.00;;;;;;;29.18;51.07;101645.81;5069980;28;20128;-69
2023/06/29 00:55:27;;;;;;;0.00;0.00;;;;;;;29.19;51.13;101641.88;5083475;28;20553;-70
2023/06/29 00:57:52;;;;;;;0.00;0.00;;;;;;;28.85;51.80;101630.06;5073317;28;20032;-68
2023/06/29 01:00:18;;;;;;;0.00;0.00;;;;;;;29.10;51.40;101637.47;5086575;28;20087;-70
2023/06/29 01:02:44;;;;;;;0.00;0.00;;;;;;;29.10;51.07;101635.53;5078395;28;20024;-69
2023/06/29 01:05:11;;;;;;;0.00;0.00;;;;;;;29.19;51.35;101619.72;5079319;28;20041;-72
2023/06/29 01:07:48;;;;;;;0.00;0.00;;;;;;;29.23;50.89;101629.00;5085168;28;20040;-69
2023/06/29 01:10:17;;;;;;;0.00;0.00;;;;;;;29.13;50.80;101623.00;5089132;28;20032;-70
2023/06/29 01:12:43;;;;;;;0.00;0.00;;;;;;;29.25;50.46;101621.16;5083235;28;20477;-69
2023/06/29 01:15:11;;;;;;;0.00;0.00;;;;;;;29.11;51.39;101623.31;5081163;28;20148;-70
2023/06/29 01:17:38;;;;;;;0.00;0.00;;;;;;;29.03;51.46;101618.59;5076233;28;20047;-70
2023/06/29 01:20:09;;;;;;;0.00;0.00;;;;;;;29.03;51.76;101620.59;5084297;28;20035;-71
2023/06/29 01:22:58;;;;;;;0.00;0.00;;;;;;;29.29;50.98;101624.09;5076158;28;20079;-69
2023/06/29 01:25:25;;;;;;;0.00;0.00;;;;;;;29.20;51.04;101623.31;5077195;28;20042;-69
2023/06/29 01:27:50;;;;;;;0.00;0.00;;;;;;;29.16;50.88;101614.88;5073208;28;20116;-69
2023/06/29 01:30:17;;;;;;;0.00;0.00;;;;;;;28.69;52.66;101615.09;5067072;28;20128;-70
2023/06/29 01:32:43;;;;;;;0.00;0.00;;;;;;;28.84;51.87;101614.59;5068627;28;20023;-71
2023/06/29 01:35:08;;;;;;;0.00;0.00;;;;;;;28.53;53.08;101615.59;5079643;28;20044;-69
2023/06/29 01:38:10;;;;;;;0.00;0.00;;;;;;;29.00;51.71;101610.97;5087165;28;20115;-69
2023/06/29 01:40:39;;;;;;;0.00;0.00;;;;;;;29.02;51.56;101616.16;5012167;28;20048;-70
2023/06/29 01:43:04;;;;;;;0.00;0.00;;;;;;;29.01;51.42;101607.03;5015594;28;20045;-69
2023/06/29 01:45:31;;;;;;;0.00;0.00;;;;;;;29.03;51.23;101602.00;5006230;28;20041;-70
2023/06/29 01:47:57;;;;;;;0.00;0.00;;;;;;;28.97;51.10;101603.31;5011215;28;20117;-69
2023/06/29 01:50:24;;;;;;;0.00;0.00;;;;;;;28.92;51.43;101602.69;5005330;28;20034;-70
2023/06/29 01:52:49;;;;;;;0.00;0.00;;;;;;;28.31;53.15;101615.75;5014461;28;20510;-69
2023/06/29 01:55:15;;;;;;;0.00;0.00;;;;;;;28.92;51.70;101603.50;5014539;28;20045;-70
2023/06/29 01:57:40;;;;;;;0.00;0.00;;;;;;;28.75;51.59;101598.00;5023455;28;20485;-71
2023/06/29 02:00:06;;;;;;;0.00;0.00;;;;;;;28.92;51.82;101605.44;5012881;28;20113;-70
2023/06/29 02:02:32;;;;;;;0.00;0.00;;;;;;;28.84;51.89;101603.50;5023853;28;20104;-71
2023/06/29 02:04:58;;;;;;;0.00;0.00;;;;;;;28.84;51.40;101601.56;5018747;28;20091;-70
2023/06/29 02:07:23;;;;;;;0.00;0.00;;;;;;;28.69;52.05;101592.97;5016379;28;20049;-70
2023/06/29 02:09:49;;;;;;;0.00;0.00;;;;;;;28.89;51.94;101595.88;5009830;28;20034;-71
2023/06/29 02:12:15;;;;;;;0.00;0.00;;;;;;;29.08;50.97;101593.53;4996877;28;20107;-71
2023/06/29 02:14:41;;;;;;;0.00;0.00;;;;;;;29.04;51.09;101591.75;5022709;28;20042;-68
2023/06/29 02:17:06;;;;;;;0.00;0.00;;;;;;;29.09;50.71;101591.56;5075622;28;20109;-71
2023/06/29 02:19:31;;;;;;;0.00;0.00;;;;;;;28.69;51.80;101596.56;5090795;28;20062;-69
2023/06/29 02:21:57;;;;;;;0.00;0.00;;;;;;;28.94;50.75;101589.31;5085169;28;20064;-69
2023/06/29 02:24:23;;;;;;;0.00;0.00;;;;;;;29.00;50.84;101593.53;5051799;28;20037;-71
2023/06/29 02:26:48;;;;;;;0.00;0.00;;;;;;;28.70;51.78;101591.84;5052093;28;20495;-69
2023/06/29 02:29:14;;;;;;;0.00;0.00;;;;;;;28.37;52.60;101588.75;5052728;28;20020;-71
2023/06/29 02:31:39;;;;;;;0.00;0.00;;;;;;;28.71;51.61;101582.41;5051281;28;20037;-70
2023/06/29 02:34:04;;;;;;;0.00;0.00;;;;;;;28.35;53.04;101589.09;5051302;28;20037;-69
2023/06/29 02:36:30;;;;;;;0.00;0.00;;;;;;;28.43;52.48;101582.75;5051331;28;20374;-71
2023/06/29 02:38:56;;;;;;;0.00;0.00;;;;;;;28.49;51.97;101586.13;5051635;28;20025;-69
2023/06/29 02:41:21;;;;;;;0.00;0.00;;;;;;;28.53;52.41;101576.88;5052355;28;20025;-70
2023/06/29 02:43:47;;;;;;;0.00;0.00;;;;;;;28.70;51.55;101580.78;5051491;28;20413;-71
2023/06/29 02:46:12;;;;;;;0.00;0.00;;;;;;;28.71;51.52;101572.16;5051218;28;20043;-69
2023/06/29 02:48:37;;;;;;;0.00;0.00;;;;;;;28.07;53.67;101567.63;5051515;28;20043;-70
2023/06/29 02:51:03;;;;;;;0.00;0.00;;;;;;;28.20;53.57;101566.66;5051213;28;20048;-71
2023/06/29 02:53:28;;;;;;;0.00;0.00;;;;;;;28.53;52.43;101568.56;5033273;28;20087;-70
2023/06/29 02:55:54;;;;;;;0.00;0.00;;;;;;;28.31;52.83;101559.63;5016298;28;20052;-68
2023/06/29 02:58:19;;;;;;;0.00;0.00;;;;;;;28.83;51.37;101563.16;5051210;28;20389;-70
2023/06/29 03:00:44;;;;;;;0.00;0.00;;;;;;;28.49;52.24;101572.31;5051026;28;20045;-69
2023/06/29 03:03:10;;;;;;;0.00;0.00;;;;;;;28.53;52.45;101559.44;5050840;28;20041;-70
2023/06/29 03:05:35;;;;;;;0.00;0.00;;;;;;;28.36;53.10;101565.81;5051239;28;20071;-70
2023/06/29 03:08:00;;;;;;;0.00;0.00;;;;;;;28.52;52.82;101563.38;5049697;28;20029;-70
2023/06/29 03:10:26;;;;;;;0.00;0.00;;;;;;;28.46;52.94;101573.78;5051099;28;20378;-70
2023/06/29 03:12:51;;;;;;;0.00;0.00;;;;;;;28.31;53.10;101560.47;5059797;28;20536;-70
2023/06/29 03:15:17;;;;;;;0.00;0.00;;;;;;;28.63;52.21;101564.69;5070510;28;20044;-70
2023/06/29 03:17:42;;;;;;;0.00;0.00;;;;;;;28.75;52.26;101572.28;5071421;28;20023;-69
2023/06/29 03:20:08;;;;;;;0.00;0.00;;;;;;;28.46;53.09;101565.47;5067975;28;20453;-70
2023/06/29 03:22:33;;;;;;;0.00;0.00;;;;;;;28.90;51.80;101566.22;5072397;28;20049;-70
2023/06/29 03:24:59;;;;;;;0.00;0.00;;;;;;;28.71;52.49;101555.53;5080546;28;20036;-70
2023/06/29 03:27:24;;;;;;;0.00;0.00;;;;;;;29.04;51.48;101562.13;5071604;28;20032;-69
2023/06/29 03:29:51;;;;;;;0.00;0.00;;;;;;;28.96;51.88;101557.41;5087283;28;20027;-69
2023/06/29 03:32:17;;;;;;;0.00;0.00;;;;;;;28.93;51.62;101552.56;5075022;28;20024;-70
2023/06/29 03:34:42;;;;;;;0.00;0.00;;;;;;;29.09;51.16;101550.84;5083279;28;20111;-69
2023/06/29 03:37:08;;;;;;;0.00;0.00;;;;;;;28.90;51.75;101547.66;5081452;28;20122;-69
2023/06/29 03:39:33;;;;;;;0.00;0.00;;;;;;;28.84;51.87;101545.41;5080843;28;20041;-68
2023/06/29 03:41:58;;;;;;;0.00;0.00;;;;;;;28.64;51.94;101546.91;5071514;28;20434;-69
2023/06/29 03:44:24;;;;;;;0.00;0.00;;;;;;;28.70;52.11;101545.59;5090999;28;20027;-70
2023/06/29 03:46:49;;;;;;;0.00;0.00;;;;;;;28.83;51.44;101541.03;5063845;28;20033;-71
2023/06/29 03:49:15;;;;;;;0.00;0.00;;;;;;;28.69;51.94;101545.94;5082489;28;20221;-68
2023/06/29 03:51:40;;;;;;;0.00;0.00;;;;;;;28.79;51.65;101540.06;5074969;28;20062;-70
2023/06/29 03:54:05;;;;;;;0.00;0.00;;;;;;;28.87;51.46;101537.28;5086570;28;20040;-70
2023/06/29 03:56:32;;;;;;;0.00;0.00;;;;;;;28.73;51.70;101547.72;5076311;28;20511;-69
2023/06/29 03:58:58;;;;;;;0.00;0.00;;;;;;;28.82;52.00;101540.19;5080345;28;20036;-69
2023/06/29 04:01:23;;;;;;;0.00;0.00;;;;;;;28.97;51.18;101534.13;5074139;28;20032;-69
2023/06/29 04:03:49;;;;;;;0.00;0.00;;;;;;;29.05;51.19;101538.81;5057871;28;20051;-70
2023/06/29 04:06:15;;;;;;;0.00;0.00;;;;;;;29.06;51.43;101534.09;5056469;28;20024;-71
2023/06/29 04:08:40;;;;;;;0.00;0.00;;;;;;;28.89;51.48;101534.16;5069077;28;20021;-70
2023/06/29 04:11:06;;;;;;;0.00;0.00;;;;;;;29.07;51.23;101532.97;5064781;28;20028;-69
2023/06/29 04:13:31;;;;;;;0.00;0.00;;;;;;;28.83;51.92;101529.97;5069127;28;20033;-69
2023/06/29 04:15:56;;;;;;;0.00;0.00;;;;;;;28.97;51.47;101534.13;5084026;28;20036;-69
2023/06/29 04:18:22;;;;;;;0.00;0.00;;;;;;;29.17;51.09;101529.84;5074290;28;20032;-70
2023/06/29 04:20:47;;;;;;;0.00;0.00;;;;;;;29.22;50.77;101533.25;5078969;28;20028;-69
2023/06/29 04:23:15;;;;;;;0.00;0.00;;;;;;;29.18;51.17;101531.47;5069105;28;20041;-70
2023/06/29 04:25:42;;;;;;;0.00;0.00;;;;;;;28.99;51.20;101529.06;5084490;28;20031;-71
2023/06/29 04:28:08;;;;;;;0.00;0.00;;;;;;;29.13;50.96;101523.34;5072759;28;20125;-70
2023/06/29 04:30:36;;;;;;;0.00;0.00;;;;;;;29.18;51.15;101526.75;5083117;28;20035;-72
2023/06/29 04:33:09;;;;;;;0.00;0.00;;;;;;;29.32;50.76;101527.34;5079376;28;20027;-70
2023/06/29 04:35:35;;;;;;;0.00;0.00;;;;;;;29.36;50.64;101521.94;5075150;28;20039;-69
2023/06/29 04:38:01;;;;;;;0.00;0.00;;;;;;;28.65;52.32;101529.19;5074127;28;20055;-70
2023/06/29 04:40:26;;;;;;;0.00;0.00;;;;;;;29.18;51.19;101521.22;5068832;28;20032;-71
2023/06/29 04:42:55;;;;;;;0.00;0.00;;;;;;;29.36;50.54;101519.97;5058655;28;20029;-70
2023/06/29 04:45:20;;;;;;;0.00;0.00;;;;;;;28.83;51.80;101525.25;5053095;28;20074;-69
2023/06/29 04:47:49;;;;;;;0.00;0.00;;;;;;;29.10;51.16;101515.69;5068757;28;20016;-68
2023/06/29 04:50:14;;;;;;;0.00;0.00;;;;;;;28.72;51.91;101514.88;5067903;28;20042;-69
2023/06/29 04:52:40;;;;;;;0.00;0.00;;;;;;;28.82;51.17;101520.00;5068425;28;20028;-71
2023/06/29 04:55:07;;;;;;;0.00;0.00;;;;;;;28.54;52.21;101522.34;5068573;28;20041;-69
2023/06/29 04:57:32;;;;;;;0.00;0.00;;;;;;;28.68;51.72;101514.69;5068956;28;20032;-70
2023/06/29 04:59:58;;;;;;;0.00;0.00;;;;;;;28.89;51.26;101520.34;5068796;28;20032;-70
2023/06/29 05:02:23;;;;;;;0.00;0.00;;;;;;;29.22;50.40;101515.81;5068825;28;20028;-70
2023/06/29 05:04:49;;;;;;;0.00;0.00;;;;;;;29.13;50.91;101520.56;5068741;28;20033;-69
2023/06/29 05:07:15;;;;;;;0.00;0.00;;;;;;;28.87;51.72;101520.66;5068527;28;20036;-69
2023/06/29 05:09:41;;;;;;;0.00;0.00;;;;;;;28.94;51.81;101520.13;5047333;28;20032;-69
2023/06/29 05:12:08;;;;;;;0.00;0.00;;;;;;;28.82;52.71;101520.00;5070232;28;20039;-69
2023/06/29 05:14:33;;;;;;;0.00;0.00;;;;;;;28.80;52.49;101512.06;5069560;28;20028;-70
2023/06/29 05:16:59;;;;;;;0.00;0.00;;;;;;;28.84;52.70;101509.44;5068483;28;20043;-69
2023/06/29 05:19:24;;;;;;;0.00;0.00;;;;;;;28.63;53.45;101506.59;5068880;28;20048;-69
2023/06/29 05:21:49;;;;;;;0.00;0.00;;;;;;;28.71;53.50;101496.63;5065642;28;20044;-69
2023/06/29 05:24:15;;;;;;;0.00;0.00;;;;;;;28.90;52.67;101506.16;5047842;28;20509;-70
2023/06/29 05:26:40;;;;;;;0.00;0.00;;;;;;;28.94;53.07;101498.81;5046412;28;20036;-70
2023/06/29 05:29:06;;;;;;;0.00;0.00;;;;;;;28.53;53.64;101501.38;5045733;28;20092;-70
2023/06/29 05:31:32;;;;;;;0.00;0.00;;;;;;;28.78;52.82;101497.75;5048026;28;20091;-69
2023/06/29 05:33:57;;;;;;;0.00;0.00;;;;;;;28.90;53.03;101497.84;5052188;28;20044;-69
2023/06/29 05:36:22;;;;;;;0.00;0.00;;;;;;;29.20;52.12;101495.94;5052291;28;20052;-69
2023/06/29 05:38:48;;;;;;;0.00;0.00;;;;;;;29.18;52.20;101488.00;5051523;28;20024;-68
2023/06/29 05:41:13;;;;;;;0.00;0.00;;;;;;;28.89;52.46;101498.19;5052479;28;20021;-69
2023/06/29 05:43:38;;;;;;;0.00;0.00;;;;;;;29.29;51.93;101488.41;5051453;28;20033;-69
2023/06/29 05:46:04;;;;;;;0.00;0.00;;;;;;;29.25;52.02;101485.50;5051627;28;20045;-70
2023/06/29 05:48:29;;;;;;;0.00;0.00;;;;;;;29.43;51.69;101488.97;5051730;28;20067;-70
2023/06/29 05:50:54;;;;;;;0.00;0.00;;;;;;;29.34;51.52;101483.50;5051933;28;20094;-69
2023/06/29 05:53:20;;;;;;;0.00;0.00;;;;;;;29.23;51.54;101478.66;5052316;28;20021;-69
2023/06/29 05:55:45;;;;;;;0.00;0.00;;;;;;;29.42;51.27;101476.28;5051334;28;20029;-69
2023/06/29 05:58:11;;;;;;;0.00;0.00;;;;;;;29.35;51.10;101476.78;5050972;28;20029;-69
2023/06/29 06:00:36;;;;;;;0.00;0.00;;;;;;;29.52;50.95;101479.44;5051321;28;20377;-70
2023/06/29 06:03:02;;;;;;;0.00;0.00;;;;;;;29.55;51.15;101475.19;5051132;28;20025;-69
2023/06/29 06:05:27;;;;;;;0.00;0.00;;;;;;;29.19;51.23;101475.75;5051791;28;20473;-71
2023/06/29 06:07:52;;;;;;;0.00;0.00;;;;;;;29.10;52.46;101471.38;5056197;28;20044;-70
2023/06/29 06:10:18;;;;;;;0.00;0.00;;;;;;;29.26;51.95;101475.22;5058140;28;20045;-70
2023/06/29 06:12:43;;;;;;;0.00;0.00;;;;;;;29.56;51.19;101468.53;5051370;28;20048;-69
2023/06/29 06:15:11;;;;;;;0.00;0.00;;;;;;;29.74;51.13;101483.88;5051137;28;20029;-71
2023/06/29 06:17:37;;;;;;;0.00;0.00;;;;;;;29.61;51.30;101484.09;5052080;28;20115;-69
2023/06/29 06:20:05;;;;;;;0.00;0.00;;;;;;;29.94;50.44;101476.69;5050931;28;20607;-70
2023/06/29 06:22:30;;;;;;;0.00;0.00;;;;;;;29.95;50.47;101473.59;5052956;28;20060;-68
2023/06/29 06:24:55;;;;;;;0.00;0.00;;;;;;;29.92;50.76;101474.28;5060176;28;20033;-68
2023/06/29 06:27:21;;;;;;;0.00;0.00;;;;;;;30.05;50.39;101472.38;5058438;28;20032;-69
2023/06/29 06:29:46;;;;;;;0.00;0.00;;;;;;;29.64;51.57;101475.13;5067169;28;20408;-68
2023/06/29 06:32:12;;;;;;;0.00;0.00;;;;;;;29.80;51.46;101478.97;5047108;28;20021;-69
2023/06/29 06:34:37;;;;;;;0.00;0.00;;;;;;;29.46;51.76;101477.22;5060394;28;20421;-68
2023/06/29 06:37:03;;;;;;;0.00;0.00;;;;;;;29.17;52.50;101468.94;5063622;28;20024;-69
2023/06/29 06:39:32;;;;;;;0.00;0.00;;;;;;;29.81;51.20;101472.25;5071373;28;20127;-69
2023/06/29 06:41:58;;;;;;;0.00;0.00;;;;;;;30.05;50.56;101475.94;5061300;28;20028;-70
2023/06/29 06:44:23;;;;;;;0.00;0.00;;;;;;;29.58;51.75;101474.53;5057752;28;20432;-69
2023/06/29 06:46:48;;;;;;;0.00;0.00;;;;;;;29.84;51.21;101469.59;5067026;28;20040;-69
2023/06/29 06:49:14;;;;;;;0.00;0.00;;;;;;;29.62;51.33;101474.66;5054398;28;20044;-69
2023/06/29 06:51:39;;;;;;;0.00;0.00;;;;;;;29.54;51.27;101468.03;5064471;28;20049;-70
2023/06/29 06:54:05;;;;;;;0.00;0.00;;;;;;;29.08;52.56;101463.41;5060735;28;20037;-69
2023/06/29 06:56:30;;;;;;;0.00;0.00;;;;;;;28.90;52.93;101472.13;5057692;28;20032;-71
2023/06/29 06:58:56;;;;;;;0.00;0.00;;;;;;;29.93;50.25;101466.78;5066920;28;20064;-70
2023/06/29 07:01:22;;;;;;;0.00;0.00;;;;;;;30.06;50.02;101466.47;5054509;28;20039;-72
2023/06/29 07:03:48;;;;;;;0.00;0.00;;;;;;;29.92;50.41;101462.34;5070117;28;20032;-69
2023/06/29 07:06:13;;;;;;;0.00;0.00;;;;;;;30.20;49.65;101463.41;5059510;28;20517;-71
2023/06/29 07:08:39;;;;;;;0.00;0.00;;;;;;;30.03;50.38;101458.84;5065734;28;20032;-68
2023/06/29 07:11:04;;;;;;;0.00;0.00;;;;;;;30.59;48.55;101456.47;5056679;28;20033;-70
2023/06/29 07:13:31;;;;;;;0.00;0.00;;;;;;;30.25;49.46;101461.22;5065224;28;20056;-70
2023/06/29 07:15:56;;;;;;;0.00;0.00;;;;;;;29.85;50.18;101459.34;5051050;28;20033;-71
2023/06/29 07:18:22;;;;;;;0.00;0.00;;;;;;;29.63;50.78;101463.25;5063423;28;20442;-68
2023/06/29 07:20:48;;;;;;;0.00;0.00;;;;;;;29.60;51.25;101463.94;5054763;28;20397;-71
2023/06/29 07:23:16;;;;;;;0.00;0.00;;;;;;;30.20;49.39;101461.44;5066581;28;20064;-70
2023/06/29 07:25:41;;;;;;;0.00;0.00;;;;;;;29.67;50.45;101458.66;5056483;28;20040;-70
2023/06/29 07:28:07;;;;;;;0.00;0.00;;;;;;;29.93;49.84;101458.47;5060019;28;20488;-69
2023/06/29 07:30:32;;;;;;;0.00;0.00;;;;;;;30.22;49.75;101455.56;5064267;28;20122;-69
2023/06/29 07:32:58;;;;;;;0.00;0.00;;;;;;;29.78;49.95;101453.53;5053541;28;20029;-69
2023/06/29 07:35:23;;;;;;;0.00;0.00;;;;;;;29.69;50.28;101452.75;5065521;28;20036;-71
2023/06/29 07:37:49;;;;;;;0.00;0.00;;;;;;;29.63;49.73;101443.84;5057517;28;20082;-70
2023/06/29 07:40:14;;;;;;;0.00;0.00;;;;;;;29.11;51.36;101448.09;5054330;28;20045;-70
2023/06/29 07:42:39;;;;;;;0.00;0.00;;;;;;;28.85;51.39;101442.72;5030213;28;20033;-71
2023/06/29 07:45:06;;;;;;;0.00;0.00;;;;;;;29.01;51.05;101440.19;5059419;28;20040;-70
2023/06/29 07:47:31;;;;;;;0.00;0.00;;;;;;;29.35;49.79;101443.56;5050097;28;20033;-69
2023/06/29 07:49:56;;;;;;;0.00;0.00;;;;;;;29.01;51.06;101443.75;5049407;28;20044;-69
2023/06/29 07:52:22;;;;;;;0.00;0.00;;;;;;;28.97;50.52;101439.22;5049683;28;20048;-68
2023/06/29 07:54:49;;;;;;;0.00;0.00;;;;;;;28.92;51.03;101440.22;5049497;28;20487;-69
2023/06/29 07:57:14;;;;;;;0.00;0.00;;;;;;;29.11;50.12;101442.56;5050101;28;20374;-73
2023/06/29 07:59:40;;;;;;;0.00;0.00;;;;;;;29.79;47.96;101452.38;5049564;28;20033;-69
2023/06/29 08:02:05;;;;;;;0.00;0.00;;;;;;;29.08;50.51;101441.28;5055539;28;20056;-69
2023/06/29 08:04:31;;;;;;;0.00;0.00;;;;;;;29.58;49.35;101448.78;5056062;28;20037;-70
2023/06/29 08:06:56;;;;;;;0.00;0.00;;;;;;;29.62;49.07;101447.75;5049252;28;20029;-70
2023/06/29 08:09:22;;;;;;;0.00;0.00;;;;;;;28.89;50.46;101438.13;5049763;28;20013;-70
2023/06/29 08:11:47;;;;;;;0.00;0.00;;;;;;;28.76;50.79;101444.69;5048766;28;20036;-69
2023/06/29 08:14:12;;;;;;;0.00;0.00;;;;;;;28.31;52.04;101447.09;5049250;28;20065;-70
2023/06/29 08:16:38;;;;;;;0.00;0.00;;;;;;;28.07;52.63;101440.50;5062983;28;20040;-70
2023/06/29 08:19:03;;;;;;;0.00;0.00;;;;;;;29.24;49.75;101441.53;5051010;28;20040;-68
2023/06/29 08:21:29;;;;;;;0.00;0.00;;;;;;;28.98;50.37;101433.34;5052176;28;20291;-70
2023/06/29 08:23:55;;;;;;;0.00;0.00;;;;;;;29.43;49.16;101433.56;5076840;28;20084;-68
2023/06/29 08:26:20;;;;;;;0.00;0.00;;;;;;;29.78;48.55;101436.91;5077226;28;20039;-69
2023/06/29 08:28:46;;;;;;;0.00;0.00;;;;;;;29.18;49.62;101427.06;5084642;28;20508;-69
2023/06/29 08:31:12;;;;;;;0.00;0.00;;;;;;;29.54;48.19;101434.81;5072161;28;20028;-69
2023/06/29 08:33:38;;;;;;;0.00;0.00;;;;;;;29.65;47.99;101429.66;5083755;28;20020;-69
2023/06/29 08:36:04;;;;;;;0.00;0.00;;;;;;;29.22;49.09;101427.22;5071196;28;20040;-69
2023/06/29 08:38:29;;;;;;;0.00;0.00;;;;;;;29.50;48.57;101429.09;5069119;28;20067;-69
2023/06/29 08:40:58;;;;;;;0.00;0.00;;;;;;;28.66;50.34;101427.66;5085611;28;20514;-70
2023/06/29 08:43:23;;;;;;;0.00;0.00;;;;;;;28.61;50.64;101426.72;5073109;28;20080;-69
2023/06/29 08:45:49;;;;;;;0.00;0.00;;;;;;;29.74;48.15;101422.13;5088856;28;20174;-68
2023/06/29 08:48:14;;;;;;;0.00;0.00;;;;;;;30.19;46.79;101426.53;5078212;28;20028;-69
2023/06/29 08:51:02;;;;;;;0.00;0.00;;;;;;;29.62;47.99;101424.78;5080057;28;20036;-70
2023/06/29 08:53:28;;;;;;;0.00;0.00;;;;;;;29.66;48.15;101425.75;5059844;28;20264;-68
2023/06/29 08:55:53;;;;;;;0.00;0.00;;;;;;;30.58;45.48;101416.00;5062237;28;20024;-63
2023/06/29 08:58:23;;;;;;;0.00;0.00;;;;;;;30.25;46.26;101416.06;5059770;28;20056;-61
2023/06/29 09:00:49;;;;;;;0.00;0.00;;;;;;;30.68;45.50;101418.34;5056331;28;20035;-63
2023/06/29 09:03:16;;;;;;;0.00;0.00;;;;;;;30.43;45.34;101411.16;5057863;28;20100;-61
2023/06/29 09:05:45;;;;;;;0.00;0.00;;;;;;;29.58;47.02;101413.59;5052892;28;20528;-63
2023/06/29 09:08:11;;;;;;;0.00;0.00;;;;;;;30.54;45.17;101412.31;5058662;28;20033;-61
2023/06/29 09:10:38;;;;;;;0.00;0.00;;;;;;;30.61;44.74;101404.22;5058103;28;20040;-63
2023/06/29 09:13:05;;;;;;;0.00;0.00;;;;;;;29.81;45.90;101411.28;5054570;28;20024;-61
2023/06/29 09:15:31;;;;;;;0.00;0.00;;;;;;;30.62;44.77;101416.94;5059561;28;20090;-62
2023/06/29 09:17:57;;;;;;;0.00;0.00;;;;;;;31.29;43.24;101406.06;5058955;28;20033;-63
2023/06/29 09:20:25;;;;;;;0.00;0.00;;;;;;;30.67;44.45;101408.38;5057655;28;20051;-63
2023/06/29 09:22:51;;;;;;;0.00;0.00;;;;;;;30.36;44.67;101414.47;5055534;28;20129;-63
2023/06/29 09:25:18;;;;;;;0.00;0.00;;;;;;;30.95;43.44;101406.56;5053625;28;20052;-63
2023/06/29 09:27:43;;;;;;;0.00;0.00;;;;;;;30.45;43.80;101409.63;5063196;28;20025;-63
2023/06/29 09:30:17;;;;;;;0.00;0.00;;;;;;;30.45;44.59;101404.09;5060720;28;20053;-63
2023/06/29 09:32:42;;;;;;;0.00;0.00;;;;;;;29.94;46.01;101401.84;5058125;28;20025;-63
2023/06/29 09:35:08;;;;;;;0.00;0.00;;;;;;;29.24;47.68;101409.13;5055599;28;20029;-64
2023/06/29 09:37:35;;;;;;;0.00;0.00;;;;;;;30.84;44.60;101400.66;5053404;28;20185;-64
2023/06/29 09:40:04;;;;;;;0.00;0.00;;;;;;;29.87;46.40;101407.97;5065719;28;20029;-64
2023/06/29 09:42:30;;;;;;;0.00;0.00;;;;;;;30.71;44.38;101404.56;5058880;28;20031;-63
2023/06/29 09:45:02;;;;;;;0.00;0.00;;;;;;;30.77;44.96;101403.19;5057090;28;20025;-66
2023/06/29 09:47:28;;;;;;;0.00;0.00;;;;;;;30.62;45.08;101405.84;5055214;28;20367;-62
2023/06/29 09:49:53;;;;;;;0.00;0.00;;;;;;;30.38;44.77;101414.13;5055785;28;20483;-64
2023/06/29 09:52:19;;;;;;;0.00;0.00;;;;;;;29.57;47.16;101409.19;5054414;28;20044;-62
2023/06/29 09:54:44;;;;;;;0.00;0.00;;;;;;;29.69;47.77;101406.47;5058253;28;20491;-64
2023/06/29 09:57:11;;;;;;;0.00;0.00;;;;;;;29.47;48.36;101406.81;5056314;28;20070;-63
2023/06/29 09:59:40;;;;;;;0.00;0.00;;;;;;;31.62;43.72;101403.06;5057482;28;20040;-63
2023/06/29 10:02:08;;;;;;;0.00;0.00;;;;;;;30.63;43.99;101413.81;5057011;28;20037;-63
2023/06/29 10:04:34;;;;;;;0.00;0.00;;;;;;;30.14;45.42;101409.31;5065161;28;20458;-65
2023/06/29 10:07:08;;;;;;;0.00;0.00;;;;;;;30.01;45.70;101411.25;5051218;28;20480;-66
2023/06/29 10:09:40;;;;;;;0.00;0.00;;;;;;;30.15;45.00;101414.50;5052100;28;20106;-64
2023/06/29 10:12:07;;;;;;;0.00;0.00;;;;;;;30.28;45.17;101407.88;5052438;28;20469;-63
2023/06/29 10:14:33;;;;;;;0.00;0.00;;;;;;;30.95;42.96;101407.38;5075080;28;20035;-62
2023/06/29 10:17:01;;;;;;;0.00;0.00;;;;;;;30.96;43.33;101405.38;5058717;28;20232;-62
2023/06/29 10:19:29;;;;;;;0.00;0.00;;;;;;;30.90;43.50;101407.59;5064449;28;20071;-63
2023/06/29 10:21:59;;;;;;;0.00;0.00;;;;;;;30.69;43.55;101403.28;5053977;28;20035;-64
2023/06/29 10:24:29;;;;;;;0.00;0.00;;;;;;;31.02;43.02;101392.88;5055285;28;20028;-65
2023/06/29 10:26:55;;;;;;;0.00;0.00;;;;;;;31.99;42.00;101397.03;5053680;28;20032;-63
2023/06/29 10:29:21;;;;;;;0.00;0.00;;;;;;;31.45;42.97;101390.28;5056227;28;20047;-62
2023/06/29 10:31:49;;;;;;;0.00;0.00;;;;;;;32.68;40.50;101385.34;5059771;28;20034;-63
2023/06/29 10:34:15;;;;;;;0.00;0.00;;;;;;;31.71;43.58;101387.03;5059130;28;20040;-62
2023/06/29 10:36:46;;;;;;;0.00;0.00;;;;;;;32.24;41.78;101377.38;5047740;28;20110;-63
2023/06/29 10:39:41;;;;;;;0.00;0.00;;;;;;;32.13;41.38;101385.47;5058799;28;20108;-64
2023/06/29 10:42:22;;;;;;;0.00;0.00;;;;;;;30.87;44.53;101386.09;5067906;28;20056;-64
2023/06/29 10:44:47;;;;;;;0.00;0.00;;;;;;;31.58;44.06;101382.72;5085009;28;20040;-62
2023/06/29 10:47:27;;;;;;;0.00;0.00;;;;;;;31.78;43.78;101384.47;5066162;28;20037;-63
2023/06/29 10:50:21;;;;;;;0.00;0.00;;;;;;;32.48;41.76;101377.25;5054739;28;20044;-62
2023/06/29 10:52:48;;;;;;;0.00;0.00;;;;;;;32.21;42.04;101369.78;5049149;28;20064;-64
2023/06/29 10:55:18;;;;;;;0.00;0.00;;;;;;;31.78;42.98;101373.38;5054670;28;20039;-67
2023/06/29 10:57:59;;;;;;;0.00;0.00;;;;;;;32.52;41.88;101367.03;5053073;28;20484;-65
2023/06/29 11:00:25;;;;;;;0.00;0.00;;;;;;;32.30;42.36;101367.63;5060172;28;20036;-66
2023/06/29 11:02:52;;;;;;;0.00;0.00;;;;;;;32.36;42.38;101363.41;5058028;28;20033;-65
2023/06/29 11:05:19;;;;;;;0.00;0.00;;;;;;;32.23;43.24;101359.09;5055785;28;20037;-64
2023/06/29 11:07:51;;;;;;;0.00;0.00;;;;;;;31.63;43.00;101374.09;5060468;28;20040;-64
2023/06/29 11:10:19;;;;;;;0.00;0.00;;;;;;;32.24;41.97;101363.47;5061151;28;20341;-64
2023/06/29 11:12:44;;;;;;;0.00;0.00;;;;;;;32.09;41.54;101365.09;5058027;28;20093;-66
2023/06/29 11:15:15;;;;;;;0.00;0.00;;;;;;;32.66;41.07;101356.22;5037188;28;20029;-64
2023/06/29 11:17:42;;;;;;;0.00;0.00;;;;;;;32.13;41.14;101359.63;5051049;28;20033;-62
2023/06/29 11:20:13;;;;;;;0.00;0.00;;;;;;;32.04;41.01;101354.22;5052191;28;20029;-62
2023/06/29 11:22:39;;;;;;;0.00;0.00;;;;;;;32.41;40.31;101361.16;5058162;28;20036;-63